sensor_id;sensor_type;location;lat;lon;timestamp;P1;durP1;ratioP1;P2;durP2;ratioP2
80425;SDS011;69766;51.476;5.704;2023-08-20T00:00:29;38.58;;;21.67;;
80425;SDS011;69766;51.476;5.704;2023-08-20T00:02:58;37.08;;;22.42;;
80425;SDS011;69766;51.476;5.704;2023-08-20T00:05:28;40.03;;;21.00;;
80425;SDS011;69766;51.476;5.704;2023-08-20T00:07:55;44.40;;;23.17;;
80425;SDS011;69766;51.476;5.704;2023-08-20T00:10:21;36.75;;;22.63;;
80425;SDS011;69766;51.476;5.704;2023-08-20T00:12:46;35.10;;;21.48;;
80425;SDS011;69766;51.476;5.704;2023-08-20T00:15:15;33.55;;;20.85;;
80425;SDS011;69766;51.476;5.704;2023-08-20T00:17:40;30.52;;;20.50;;
80425;SDS011;69766;51.476;5.704;2023-08-20T00:20:07;32.35;;;19.63;;
80425;SDS011;69766;51.476;5.704;2023-08-20T00:22:37;31.33;;;20.05;;
80425;SDS011;69766;51.476;5.704;2023-08-20T00:25:04;30.70;;;20.10;;
80425;SDS011;69766;51.476;5.704;2023-08-20T00:27:30;34.17;;;20.77;;
80425;SDS011;69766;51.476;5.704;2023-08-20T00:29:56;27.27;;;20.10;;
80425;SDS011;69766;51.476;5.704;2023-08-20T00:32:22;30.92;;;18.98;;
80425;SDS011;69766;51.476;5.704;2023-08-20T00:34:48;33.60;;;21.27;;
80425;SDS011;69766;51.476;5.704;2023-08-20T00:37:15;33.53;;;21.65;;
80425;SDS011;69766;51.476;5.704;2023-08-20T00:39:40;27.98;;;20.40;;
80425;SDS011;69766;51.476;5.704;2023-08-20T00:42:06;30.75;;;19.13;;
80425;SDS011;69766;51.476;5.704;2023-08-20T00:44:32;35.22;;;19.50;;
80425;SDS011;69766;51.476;5.704;2023-08-20T00:46:59;27.27;;;18.40;;
80425;SDS011;69766;51.476;5.704;2023-08-20T00:49:26;30.40;;;19.17;;
80425;SDS011;69766;51.476;5.704;2023-08-20T00:51:51;29.13;;;18.50;;
80425;SDS011;69766;51.476;5.704;2023-08-20T00:54:18;30.42;;;18.17;;
80425;SDS011;69766;51.476;5.704;2023-08-20T00:56:45;32.03;;;20.00;;
80425;SDS011;69766;51.476;5.704;2023-08-20T00:59:12;28.33;;;18.27;;
80425;SDS011;69766;51.476;5.704;2023-08-20T01:01:38;34.40;;;20.65;;
80425;SDS011;69766;51.476;5.704;2023-08-20T01:04:04;35.47;;;18.77;;
80425;SDS011;69766;51.476;5.704;2023-08-20T01:07:14;31.75;;;19.45;;
80425;SDS011;69766;51.476;5.704;2023-08-20T01:12:29;30.80;;;20.45;;
80425;SDS011;69766;51.476;5.704;2023-08-20T01:14:56;28.50;;;20.52;;
80425;SDS011;69766;51.476;5.704;2023-08-20T01:17:22;38.95;;;22.05;;
80425;SDS011;69766;51.476;5.704;2023-08-20T01:19:48;35.78;;;20.70;;
80425;SDS011;69766;51.476;5.704;2023-08-20T01:25:05;30.95;;;19.83;;
80425;SDS011;69766;51.476;5.704;2023-08-20T01:30:21;33.33;;;19.95;;
80425;SDS011;69766;51.476;5.704;2023-08-20T01:32:49;27.42;;;18.45;;
80425;SDS011;69766;51.476;5.704;2023-08-20T01:35:17;30.20;;;18.75;;
80425;SDS011;69766;51.476;5.704;2023-08-20T01:37:43;29.42;;;19.02;;
80425;SDS011;69766;51.476;5.704;2023-08-20T01:40:09;30.08;;;19.40;;
80425;SDS011;69766;51.476;5.704;2023-08-20T01:42:38;33.17;;;20.40;;
80425;SDS011;69766;51.476;5.704;2023-08-20T01:45:05;38.63;;;22.48;;
80425;SDS011;69766;51.476;5.704;2023-08-20T01:47:34;35.85;;;21.25;;
80425;SDS011;69766;51.476;5.704;2023-08-20T01:50:00;32.45;;;20.77;;
80425;SDS011;69766;51.476;5.704;2023-08-20T01:52:26;30.88;;;19.85;;
80425;SDS011;69766;51.476;5.704;2023-08-20T01:54:52;30.30;;;19.35;;
80425;SDS011;69766;51.476;5.704;2023-08-20T01:57:21;29.58;;;18.52;;
80425;SDS011;69766;51.476;5.704;2023-08-20T01:59:47;28.63;;;18.30;;
80425;SDS011;69766;51.476;5.704;2023-08-20T02:02:13;30.27;;;18.23;;
80425;SDS011;69766;51.476;5.704;2023-08-20T02:04:39;29.42;;;18.85;;
80425;SDS011;69766;51.476;5.704;2023-08-20T02:07:04;32.05;;;19.85;;
80425;SDS011;69766;51.476;5.704;2023-08-20T02:09:30;29.20;;;19.05;;
80425;SDS011;69766;51.476;5.704;2023-08-20T02:11:55;26.45;;;19.15;;
80425;SDS011;69766;51.476;5.704;2023-08-20T02:14:21;31.50;;;18.60;;
80425;SDS011;69766;51.476;5.704;2023-08-20T02:16:47;26.77;;;19.30;;
80425;SDS011;69766;51.476;5.704;2023-08-20T02:19:13;27.55;;;19.33;;
80425;SDS011;69766;51.476;5.704;2023-08-20T02:21:39;26.20;;;18.33;;
80425;SDS011;69766;51.476;5.704;2023-08-20T02:24:07;30.92;;;18.13;;
80425;SDS011;69766;51.476;5.704;2023-08-20T02:26:33;30.38;;;19.17;;
80425;SDS011;69766;51.476;5.704;2023-08-20T02:28:59;30.48;;;19.80;;
80425;SDS011;69766;51.476;5.704;2023-08-20T02:31:25;29.75;;;18.23;;
80425;SDS011;69766;51.476;5.704;2023-08-20T02:33:51;28.95;;;17.23;;
80425;SDS011;69766;51.476;5.704;2023-08-20T02:36:16;27.13;;;18.52;;
80425;SDS011;69766;51.476;5.704;2023-08-20T02:38:44;25.33;;;18.15;;
80425;SDS011;69766;51.476;5.704;2023-08-20T02:41:10;27.50;;;18.75;;
80425;SDS011;69766;51.476;5.704;2023-08-20T02:43:37;26.38;;;17.65;;
80425;SDS011;69766;51.476;5.704;2023-08-20T02:46:02;26.05;;;17.50;;
80425;SDS011;69766;51.476;5.704;2023-08-20T02:48:29;27.88;;;18.10;;
80425;SDS011;69766;51.476;5.704;2023-08-20T02:50:55;29.40;;;18.75;;
80425;SDS011;69766;51.476;5.704;2023-08-20T02:53:21;28.23;;;18.63;;
80425;SDS011;69766;51.476;5.704;2023-08-20T02:55:47;30.80;;;19.25;;
80425;SDS011;69766;51.476;5.704;2023-08-20T02:58:13;26.20;;;17.70;;
80425;SDS011;69766;51.476;5.704;2023-08-20T03:00:39;27.63;;;17.83;;
80425;SDS011;69766;51.476;5.704;2023-08-20T03:03:07;29.02;;;19.80;;
80425;SDS011;69766;51.476;5.704;2023-08-20T03:05:33;31.92;;;19.25;;
80425;SDS011;69766;51.476;5.704;2023-08-20T03:07:59;31.05;;;18.40;;
80425;SDS011;69766;51.476;5.704;2023-08-20T03:10:26;29.00;;;19.08;;
80425;SDS011;69766;51.476;5.704;2023-08-20T03:12:52;29.83;;;20.35;;
80425;SDS011;69766;51.476;5.704;2023-08-20T03:15:18;30.10;;;20.05;;
80425;SDS011;69766;51.476;5.704;2023-08-20T03:17:44;33.08;;;19.90;;
80425;SDS011;69766;51.476;5.704;2023-08-20T03:20:09;30.77;;;20.40;;
80425;SDS011;69766;51.476;5.704;2023-08-20T03:22:39;26.75;;;20.30;;
80425;SDS011;69766;51.476;5.704;2023-08-20T03:25:05;35.50;;;19.73;;
80425;SDS011;69766;51.476;5.704;2023-08-20T03:27:31;28.42;;;18.67;;
80425;SDS011;69766;51.476;5.704;2023-08-20T03:29:57;31.63;;;18.05;;
80425;SDS011;69766;51.476;5.704;2023-08-20T03:32:23;32.80;;;18.73;;
80425;SDS011;69766;51.476;5.704;2023-08-20T03:34:49;28.48;;;17.67;;
80425;SDS011;69766;51.476;5.704;2023-08-20T03:37:15;29.25;;;18.10;;
80425;SDS011;69766;51.476;5.704;2023-08-20T03:39:41;36.30;;;21.25;;
80425;SDS011;69766;51.476;5.704;2023-08-20T03:42:06;36.20;;;20.60;;
80425;SDS011;69766;51.476;5.704;2023-08-20T03:44:32;33.30;;;20.90;;
80425;SDS011;69766;51.476;5.704;2023-08-20T03:46:58;33.22;;;20.13;;
80425;SDS011;69766;51.476;5.704;2023-08-20T03:49:24;32.65;;;20.85;;
80425;SDS011;69766;51.476;5.704;2023-08-20T03:51:49;36.30;;;21.58;;
80425;SDS011;69766;51.476;5.704;2023-08-20T03:54:15;34.63;;;20.27;;
80425;SDS011;69766;51.476;5.704;2023-08-20T03:56:41;29.63;;;18.92;;
80425;SDS011;69766;51.476;5.704;2023-08-20T03:59:07;30.02;;;19.75;;
80425;SDS011;69766;51.476;5.704;2023-08-20T04:01:32;34.17;;;20.52;;
80425;SDS011;69766;51.476;5.704;2023-08-20T04:03:58;32.70;;;20.08;;
80425;SDS011;69766;51.476;5.704;2023-08-20T04:06:24;33.67;;;19.95;;
80425;SDS011;69766;51.476;5.704;2023-08-20T04:08:49;32.33;;;19.70;;
80425;SDS011;69766;51.476;5.704;2023-08-20T04:11:15;35.20;;;20.27;;
80425;SDS011;69766;51.476;5.704;2023-08-20T04:13:41;33.65;;;19.35;;
80425;SDS011;69766;51.476;5.704;2023-08-20T04:16:08;33.08;;;18.70;;
80425;SDS011;69766;51.476;5.704;2023-08-20T04:18:34;29.75;;;18.77;;
80425;SDS011;69766;51.476;5.704;2023-08-20T04:21:00;30.83;;;19.17;;
80425;SDS011;69766;51.476;5.704;2023-08-20T04:23:26;25.83;;;17.60;;
80425;SDS011;69766;51.476;5.704;2023-08-20T04:25:51;33.03;;;18.50;;
80425;SDS011;69766;51.476;5.704;2023-08-20T04:28:17;30.63;;;18.85;;
80425;SDS011;69766;51.476;5.704;2023-08-20T04:30:43;27.35;;;18.30;;
80425;SDS011;69766;51.476;5.704;2023-08-20T04:33:09;34.67;;;18.30;;
80425;SDS011;69766;51.476;5.704;2023-08-20T04:35:35;29.13;;;19.00;;
80425;SDS011;69766;51.476;5.704;2023-08-20T04:38:01;29.05;;;19.05;;
80425;SDS011;69766;51.476;5.704;2023-08-20T04:40:28;27.60;;;17.55;;
80425;SDS011;69766;51.476;5.704;2023-08-20T04:42:53;31.17;;;18.30;;
80425;SDS011;69766;51.476;5.704;2023-08-20T04:45:19;31.48;;;20.00;;
80425;SDS011;69766;51.476;5.704;2023-08-20T04:47:48;33.03;;;19.42;;
80425;SDS011;69766;51.476;5.704;2023-08-20T04:50:13;30.33;;;19.35;;
80425;SDS011;69766;51.476;5.704;2023-08-20T04:52:39;29.95;;;18.35;;
80425;SDS011;69766;51.476;5.704;2023-08-20T04:55:05;29.13;;;18.70;;
80425;SDS011;69766;51.476;5.704;2023-08-20T04:57:32;35.17;;;19.25;;
80425;SDS011;69766;51.476;5.704;2023-08-20T04:59:57;29.17;;;18.55;;
80425;SDS011;69766;51.476;5.704;2023-08-20T05:02:23;28.52;;;19.55;;
80425;SDS011;69766;51.476;5.704;2023-08-20T05:04:49;27.58;;;19.13;;
80425;SDS011;69766;51.476;5.704;2023-08-20T05:07:15;31.85;;;19.17;;
80425;SDS011;69766;51.476;5.704;2023-08-20T05:09:41;32.40;;;19.70;;
80425;SDS011;69766;51.476;5.704;2023-08-20T05:12:07;29.85;;;17.80;;
80425;SDS011;69766;51.476;5.704;2023-08-20T05:14:33;33.30;;;19.30;;
80425;SDS011;69766;51.476;5.704;2023-08-20T05:16:59;30.92;;;18.70;;
80425;SDS011;69766;51.476;5.704;2023-08-20T05:19:25;26.35;;;18.73;;
80425;SDS011;69766;51.476;5.704;2023-08-20T05:21:53;31.27;;;19.75;;
80425;SDS011;69766;51.476;5.704;2023-08-20T05:24:21;32.85;;;19.80;;
80425;SDS011;69766;51.476;5.704;2023-08-20T05:26:49;27.52;;;17.65;;
80425;SDS011;69766;51.476;5.704;2023-08-20T05:29:31;30.77;;;19.08;;
80425;SDS011;69766;51.476;5.704;2023-08-20T05:31:58;28.75;;;18.02;;
80425;SDS011;69766;51.476;5.704;2023-08-20T05:34:24;30.70;;;19.05;;
80425;SDS011;69766;51.476;5.704;2023-08-20T05:36:49;29.98;;;19.33;;
80425;SDS011;69766;51.476;5.704;2023-08-20T05:39:15;25.98;;;17.77;;
80425;SDS011;69766;51.476;5.704;2023-08-20T05:41:41;34.42;;;20.02;;
80425;SDS011;69766;51.476;5.704;2023-08-20T05:44:06;34.47;;;21.30;;
80425;SDS011;69766;51.476;5.704;2023-08-20T05:46:32;31.13;;;20.15;;
80425;SDS011;69766;51.476;5.704;2023-08-20T05:48:58;37.90;;;20.88;;
80425;SDS011;69766;51.476;5.704;2023-08-20T05:51:23;33.83;;;20.45;;
80425;SDS011;69766;51.476;5.704;2023-08-20T05:53:49;31.95;;;21.73;;
80425;SDS011;69766;51.476;5.704;2023-08-20T05:56:15;33.33;;;20.50;;
80425;SDS011;69766;51.476;5.704;2023-08-20T05:58:40;34.47;;;20.58;;
80425;SDS011;69766;51.476;5.704;2023-08-20T06:01:06;36.13;;;22.40;;
80425;SDS011;69766;51.476;5.704;2023-08-20T06:03:32;29.80;;;19.50;;
80425;SDS011;69766;51.476;5.704;2023-08-20T06:05:57;34.10;;;18.95;;
80425;SDS011;69766;51.476;5.704;2023-08-20T06:08:23;31.85;;;18.30;;
80425;SDS011;69766;51.476;5.704;2023-08-20T06:10:50;33.17;;;18.83;;
80425;SDS011;69766;51.476;5.704;2023-08-20T06:13:15;27.33;;;16.15;;
80425;SDS011;69766;51.476;5.704;2023-08-20T06:15:41;30.33;;;17.15;;
80425;SDS011;69766;51.476;5.704;2023-08-20T06:18:07;27.15;;;15.77;;
80425;SDS011;69766;51.476;5.704;2023-08-20T06:20:32;21.65;;;14.32;;
80425;SDS011;69766;51.476;5.704;2023-08-20T06:22:58;28.23;;;13.30;;
80425;SDS011;69766;51.476;5.704;2023-08-20T06:25:24;21.67;;;12.57;;
80425;SDS011;69766;51.476;5.704;2023-08-20T06:27:50;20.77;;;10.77;;
80425;SDS011;69766;51.476;5.704;2023-08-20T06:30:15;21.42;;;11.60;;
80425;SDS011;69766;51.476;5.704;2023-08-20T06:32:41;17.20;;;9.60;;
80425;SDS011;69766;51.476;5.704;2023-08-20T06:35:09;16.08;;;9.25;;
80425;SDS011;69766;51.476;5.704;2023-08-20T06:37:35;16.02;;;8.52;;
80425;SDS011;69766;51.476;5.704;2023-08-20T06:40:01;14.30;;;8.23;;
80425;SDS011;69766;51.476;5.704;2023-08-20T06:42:26;17.73;;;8.60;;
80425;SDS011;69766;51.476;5.704;2023-08-20T06:44:52;21.58;;;9.07;;
80425;SDS011;69766;51.476;5.704;2023-08-20T06:47:18;14.13;;;7.38;;
80425;SDS011;69766;51.476;5.704;2023-08-20T06:49:43;12.85;;;6.10;;
80425;SDS011;69766;51.476;5.704;2023-08-20T06:52:09;8.93;;;4.32;;
80425;SDS011;69766;51.476;5.704;2023-08-20T06:54:35;11.05;;;4.43;;
80425;SDS011;69766;51.476;5.704;2023-08-20T06:57:00;9.38;;;3.67;;
80425;SDS011;69766;51.476;5.704;2023-08-20T06:59:26;12.43;;;3.58;;
80425;SDS011;69766;51.476;5.704;2023-08-20T07:01:52;8.20;;;2.70;;
80425;SDS011;69766;51.476;5.704;2023-08-20T07:04:21;9.75;;;2.50;;
80425;SDS011;69766;51.476;5.704;2023-08-20T07:06:46;10.30;;;2.47;;
80425;SDS011;69766;51.476;5.704;2023-08-20T07:09:12;12.68;;;3.17;;
80425;SDS011;69766;51.476;5.704;2023-08-20T07:11:38;9.63;;;3.17;;
80425;SDS011;69766;51.476;5.704;2023-08-20T07:14:04;11.43;;;2.53;;
80425;SDS011;69766;51.476;5.704;2023-08-20T07:16:32;11.55;;;2.33;;
80425;SDS011;69766;51.476;5.704;2023-08-20T07:18:58;15.95;;;2.80;;
80425;SDS011;69766;51.476;5.704;2023-08-20T07:21:24;10.30;;;2.55;;
80425;SDS011;69766;51.476;5.704;2023-08-20T07:23:49;8.15;;;2.35;;
80425;SDS011;69766;51.476;5.704;2023-08-20T07:26:15;11.70;;;2.28;;
80425;SDS011;69766;51.476;5.704;2023-08-20T07:28:41;8.88;;;2.58;;
80425;SDS011;69766;51.476;5.704;2023-08-20T07:31:25;7.30;;;2.35;;
80425;SDS011;69766;51.476;5.704;2023-08-20T07:33:55;7.95;;;2.28;;
80425;SDS011;69766;51.476;5.704;2023-08-20T07:36:22;12.25;;;2.58;;
80425;SDS011;69766;51.476;5.704;2023-08-20T07:38:50;9.25;;;2.72;;
80425;SDS011;69766;51.476;5.704;2023-08-20T07:41:16;9.68;;;2.15;;
80425;SDS011;69766;51.476;5.704;2023-08-20T07:43:42;6.78;;;2.15;;
80425;SDS011;69766;51.476;5.704;2023-08-20T07:46:09;9.25;;;2.58;;
80425;SDS011;69766;51.476;5.704;2023-08-20T07:48:35;8.02;;;2.45;;
80425;SDS011;69766;51.476;5.704;2023-08-20T07:51:02;6.25;;;1.83;;
80425;SDS011;69766;51.476;5.704;2023-08-20T07:53:28;8.13;;;2.53;;
80425;SDS011;69766;51.476;5.704;2023-08-20T07:55:54;8.43;;;2.03;;
80425;SDS011;69766;51.476;5.704;2023-08-20T07:58:20;9.25;;;2.33;;
80425;SDS011;69766;51.476;5.704;2023-08-20T08:00:46;8.18;;;2.10;;
80425;SDS011;69766;51.476;5.704;2023-08-20T08:03:12;7.70;;;2.10;;
80425;SDS011;69766;51.476;5.704;2023-08-20T08:05:40;6.45;;;1.70;;
80425;SDS011;69766;51.476;5.704;2023-08-20T08:08:06;8.10;;;2.10;;
80425;SDS011;69766;51.476;5.704;2023-08-20T08:10:31;7.05;;;2.00;;
80425;SDS011;69766;51.476;5.704;2023-08-20T08:12:57;7.93;;;2.53;;
80425;SDS011;69766;51.476;5.704;2023-08-20T08:15:23;5.22;;;2.00;;
80425;SDS011;69766;51.476;5.704;2023-08-20T08:17:48;7.47;;;1.88;;
80425;SDS011;69766;51.476;5.704;2023-08-20T08:20:14;10.05;;;2.05;;
80425;SDS011;69766;51.476;5.704;2023-08-20T08:22:40;7.95;;;2.20;;
80425;SDS011;69766;51.476;5.704;2023-08-20T08:25:05;7.68;;;2.30;;
80425;SDS011;69766;51.476;5.704;2023-08-20T08:27:31;6.65;;;2.42;;
80425;SDS011;69766;51.476;5.704;2023-08-20T08:29:57;8.95;;;2.28;;
80425;SDS011;69766;51.476;5.704;2023-08-20T08:32:22;12.50;;;3.08;;
80425;SDS011;69766;51.476;5.704;2023-08-20T08:34:48;8.43;;;2.47;;
80425;SDS011;69766;51.476;5.704;2023-08-20T08:37:14;8.45;;;3.03;;
80425;SDS011;69766;51.476;5.704;2023-08-20T08:39:40;9.43;;;2.42;;
80425;SDS011;69766;51.476;5.704;2023-08-20T08:42:06;10.45;;;2.35;;
80425;SDS011;69766;51.476;5.704;2023-08-20T08:44:35;10.50;;;4.20;;
80425;SDS011;69766;51.476;5.704;2023-08-20T08:47:02;8.35;;;3.78;;
80425;SDS011;69766;51.476;5.704;2023-08-20T08:49:30;8.23;;;3.00;;
80425;SDS011;69766;51.476;5.704;2023-08-20T08:51:58;9.50;;;3.92;;
80425;SDS011;69766;51.476;5.704;2023-08-20T08:54:24;7.65;;;2.88;;
80425;SDS011;69766;51.476;5.704;2023-08-20T08:56:51;13.13;;;4.65;;
80425;SDS011;69766;51.476;5.704;2023-08-20T08:59:17;11.98;;;4.97;;
80425;SDS011;69766;51.476;5.704;2023-08-20T09:01:43;11.48;;;4.90;;
80425;SDS011;69766;51.476;5.704;2023-08-20T09:04:09;13.48;;;4.70;;
80425;SDS011;69766;51.476;5.704;2023-08-20T09:06:44;11.30;;;4.47;;
80425;SDS011;69766;51.476;5.704;2023-08-20T09:09:14;11.70;;;4.97;;
80425;SDS011;69766;51.476;5.704;2023-08-20T09:11:41;8.90;;;4.47;;
80425;SDS011;69766;51.476;5.704;2023-08-20T09:14:07;10.95;;;3.92;;
80425;SDS011;69766;51.476;5.704;2023-08-20T09:16:32;15.50;;;5.63;;
80425;SDS011;69766;51.476;5.704;2023-08-20T09:18:58;12.38;;;4.93;;
80425;SDS011;69766;51.476;5.704;2023-08-20T09:21:28;15.02;;;4.15;;
80425;SDS011;69766;51.476;5.704;2023-08-20T09:23:54;13.47;;;4.30;;
80425;SDS011;69766;51.476;5.704;2023-08-20T09:26:26;12.63;;;4.30;;
80425;SDS011;69766;51.476;5.704;2023-08-20T09:28:53;10.85;;;3.83;;
80425;SDS011;69766;51.476;5.704;2023-08-20T09:31:20;10.50;;;3.80;;
80425;SDS011;69766;51.476;5.704;2023-08-20T09:33:52;7.65;;;2.65;;
80425;SDS011;69766;51.476;5.704;2023-08-20T09:36:19;9.32;;;2.50;;
80425;SDS011;69766;51.476;5.704;2023-08-20T09:38:57;9.70;;;3.00;;
80425;SDS011;69766;51.476;5.704;2023-08-20T09:41:23;9.77;;;2.88;;
80425;SDS011;69766;51.476;5.704;2023-08-20T09:43:52;6.05;;;2.53;;
80425;SDS011;69766;51.476;5.704;2023-08-20T09:46:24;8.52;;;3.03;;
80425;SDS011;69766;51.476;5.704;2023-08-20T09:48:52;5.57;;;1.90;;
80425;SDS011;69766;51.476;5.704;2023-08-20T09:56:37;5.47;;;2.10;;
80425;SDS011;69766;51.476;5.704;2023-08-20T09:59:04;4.68;;;1.45;;
80425;SDS011;69766;51.476;5.704;2023-08-20T10:01:30;5.65;;;1.70;;
80425;SDS011;69766;51.476;5.704;2023-08-20T10:03:56;4.68;;;1.80;;
80425;SDS011;69766;51.476;5.704;2023-08-20T10:06:22;6.03;;;2.00;;
80425;SDS011;69766;51.476;5.704;2023-08-20T10:08:50;5.75;;;1.63;;
80425;SDS011;69766;51.476;5.704;2023-08-20T10:11:16;3.95;;;1.30;;
80425;SDS011;69766;51.476;5.704;2023-08-20T10:13:42;5.70;;;1.52;;
80425;SDS011;69766;51.476;5.704;2023-08-20T10:16:11;6.38;;;1.70;;
80425;SDS011;69766;51.476;5.704;2023-08-20T10:18:38;5.40;;;1.67;;
80425;SDS011;69766;51.476;5.704;2023-08-20T10:21:11;6.88;;;1.50;;
80425;SDS011;69766;51.476;5.704;2023-08-20T10:23:40;5.22;;;1.27;;
80425;SDS011;69766;51.476;5.704;2023-08-20T10:26:09;6.13;;;1.67;;
80425;SDS011;69766;51.476;5.704;2023-08-20T10:28:36;5.43;;;1.60;;
80425;SDS011;69766;51.476;5.704;2023-08-20T10:31:07;3.42;;;1.38;;
80425;SDS011;69766;51.476;5.704;2023-08-20T10:33:38;4.20;;;1.50;;
80425;SDS011;69766;51.476;5.704;2023-08-20T10:36:15;4.80;;;1.60;;
80425;SDS011;69766;51.476;5.704;2023-08-20T10:38:51;5.05;;;1.50;;
80425;SDS011;69766;51.476;5.704;2023-08-20T10:41:27;3.88;;;1.65;;
80425;SDS011;69766;51.476;5.704;2023-08-20T10:44:00;5.65;;;1.40;;
80425;SDS011;69766;51.476;5.704;2023-08-20T10:46:29;4.35;;;1.30;;
80425;SDS011;69766;51.476;5.704;2023-08-20T10:51:27;4.70;;;1.00;;
80425;SDS011;69766;51.476;5.704;2023-08-20T10:59:15;2.90;;;0.90;;
80425;SDS011;69766;51.476;5.704;2023-08-20T11:01:45;3.20;;;0.82;;
80425;SDS011;69766;51.476;5.704;2023-08-20T11:04:16;3.20;;;1.02;;
80425;SDS011;69766;51.476;5.704;2023-08-20T11:06:44;4.30;;;0.80;;
80425;SDS011;69766;51.476;5.704;2023-08-20T11:09:10;2.92;;;0.88;;
80425;SDS011;69766;51.476;5.704;2023-08-20T11:11:39;4.88;;;0.90;;
80425;SDS011;69766;51.476;5.704;2023-08-20T11:14:06;2.50;;;0.80;;
80425;SDS011;69766;51.476;5.704;2023-08-20T11:16:46;2.78;;;0.70;;
80425;SDS011;69766;51.476;5.704;2023-08-20T11:19:14;2.97;;;0.70;;
80425;SDS011;69766;51.476;5.704;2023-08-20T11:21:43;2.92;;;0.70;;
80425;SDS011;69766;51.476;5.704;2023-08-20T11:24:13;3.88;;;0.80;;
80425;SDS011;69766;51.476;5.704;2023-08-20T11:26:40;3.03;;;0.70;;
80425;SDS011;69766;51.476;5.704;2023-08-20T11:29:07;2.97;;;0.57;;
80425;SDS011;69766;51.476;5.704;2023-08-20T11:31:47;3.45;;;0.70;;
80425;SDS011;69766;51.476;5.704;2023-08-20T11:34:14;2.20;;;0.45;;
80425;SDS011;69766;51.476;5.704;2023-08-20T11:36:40;3.83;;;0.88;;
80425;SDS011;69766;51.476;5.704;2023-08-20T11:39:07;3.15;;;0.70;;
80425;SDS011;69766;51.476;5.704;2023-08-20T11:41:36;3.85;;;0.80;;
80425;SDS011;69766;51.476;5.704;2023-08-20T11:44:03;3.08;;;0.75;;
80425;SDS011;69766;51.476;5.704;2023-08-20T11:46:29;3.08;;;0.80;;
80425;SDS011;69766;51.476;5.704;2023-08-20T11:48:58;3.67;;;0.90;;
80425;SDS011;69766;51.476;5.704;2023-08-20T11:54:06;1.95;;;0.70;;
80425;SDS011;69766;51.476;5.704;2023-08-20T11:56:33;3.78;;;0.85;;
80425;SDS011;69766;51.476;5.704;2023-08-20T11:59:00;4.93;;;0.80;;
80425;SDS011;69766;51.476;5.704;2023-08-20T12:01:33;3.85;;;0.82;;
80425;SDS011;69766;51.476;5.704;2023-08-20T12:04:08;2.78;;;0.55;;
80425;SDS011;69766;51.476;5.704;2023-08-20T12:06:35;3.17;;;0.63;;
80425;SDS011;69766;51.476;5.704;2023-08-20T12:09:03;2.67;;;0.70;;
80425;SDS011;69766;51.476;5.704;2023-08-20T12:11:51;3.80;;;0.80;;
80425;SDS011;69766;51.476;5.704;2023-08-20T12:14:17;2.60;;;0.70;;
80425;SDS011;69766;51.476;5.704;2023-08-20T12:16:44;2.53;;;0.70;;
80425;SDS011;69766;51.476;5.704;2023-08-20T12:19:10;5.57;;;1.08;;
80425;SDS011;69766;51.476;5.704;2023-08-20T12:21:36;3.90;;;0.95;;
80425;SDS011;69766;51.476;5.704;2023-08-20T12:24:03;3.92;;;0.80;;
80425;SDS011;69766;51.476;5.704;2023-08-20T12:26:32;2.28;;;0.70;;
80425;SDS011;69766;51.476;5.704;2023-08-20T12:28:58;3.53;;;0.75;;
80425;SDS011;69766;51.476;5.704;2023-08-20T12:31:23;3.50;;;0.80;;
80425;SDS011;69766;51.476;5.704;2023-08-20T12:33:49;3.28;;;0.70;;
80425;SDS011;69766;51.476;5.704;2023-08-20T12:36:15;3.30;;;0.80;;
80425;SDS011;69766;51.476;5.704;2023-08-20T12:38:41;5.10;;;0.80;;
80425;SDS011;69766;51.476;5.704;2023-08-20T12:41:07;3.47;;;1.05;;
80425;SDS011;69766;51.476;5.704;2023-08-20T12:43:32;3.20;;;0.68;;
80425;SDS011;69766;51.476;5.704;2023-08-20T12:45:58;2.95;;;0.70;;
80425;SDS011;69766;51.476;5.704;2023-08-20T12:48:24;3.22;;;0.73;;
80425;SDS011;69766;51.476;5.704;2023-08-20T12:50:50;3.63;;;0.60;;
80425;SDS011;69766;51.476;5.704;2023-08-20T12:53:16;3.42;;;0.82;;
80425;SDS011;69766;51.476;5.704;2023-08-20T12:55:42;3.85;;;0.90;;
80425;SDS011;69766;51.476;5.704;2023-08-20T12:58:08;1.52;;;0.50;;
80425;SDS011;69766;51.476;5.704;2023-08-20T13:00:34;3.78;;;0.85;;
80425;SDS011;69766;51.476;5.704;2023-08-20T13:02:59;5.65;;;1.00;;
80425;SDS011;69766;51.476;5.704;2023-08-20T13:05:25;3.70;;;0.70;;
80425;SDS011;69766;51.476;5.704;2023-08-20T13:07:52;4.00;;;1.00;;
80425;SDS011;69766;51.476;5.704;2023-08-20T13:10:18;5.32;;;0.85;;
80425;SDS011;69766;51.476;5.704;2023-08-20T13:12:47;3.72;;;0.88;;
80425;SDS011;69766;51.476;5.704;2023-08-20T13:15:16;3.60;;;0.50;;
80425;SDS011;69766;51.476;5.704;2023-08-20T13:17:45;2.30;;;0.80;;
80425;SDS011;69766;51.476;5.704;2023-08-20T13:20:11;4.03;;;0.95;;
80425;SDS011;69766;51.476;5.704;2023-08-20T13:22:37;2.50;;;0.60;;
80425;SDS011;69766;51.476;5.704;2023-08-20T13:25:03;2.70;;;0.82;;
80425;SDS011;69766;51.476;5.704;2023-08-20T13:27:29;4.18;;;0.60;;
80425;SDS011;69766;51.476;5.704;2023-08-20T13:29:56;2.78;;;0.50;;
80425;SDS011;69766;51.476;5.704;2023-08-20T13:32:22;2.97;;;0.75;;
80425;SDS011;69766;51.476;5.704;2023-08-20T13:34:49;2.85;;;0.52;;
80425;SDS011;69766;51.476;5.704;2023-08-20T13:37:15;4.97;;;0.82;;
80425;SDS011;69766;51.476;5.704;2023-08-20T13:39:41;2.97;;;0.68;;
80425;SDS011;69766;51.476;5.704;2023-08-20T13:42:09;4.82;;;0.70;;
80425;SDS011;69766;51.476;5.704;2023-08-20T13:44:38;3.45;;;0.82;;
80425;SDS011;69766;51.476;5.704;2023-08-20T13:47:04;3.40;;;0.70;;
80425;SDS011;69766;51.476;5.704;2023-08-20T13:49:30;3.17;;;0.90;;
80425;SDS011;69766;51.476;5.704;2023-08-20T13:51:55;2.17;;;0.70;;
80425;SDS011;69766;51.476;5.704;2023-08-20T13:54:21;2.03;;;0.45;;
80425;SDS011;69766;51.476;5.704;2023-08-20T13:56:47;5.10;;;1.15;;
80425;SDS011;69766;51.476;5.704;2023-08-20T13:59:13;4.00;;;0.98;;
80425;SDS011;69766;51.476;5.704;2023-08-20T14:01:39;3.85;;;0.93;;
80425;SDS011;69766;51.476;5.704;2023-08-20T14:04:05;4.05;;;1.00;;
80425;SDS011;69766;51.476;5.704;2023-08-20T14:06:31;2.97;;;0.77;;
80425;SDS011;69766;51.476;5.704;2023-08-20T14:08:56;2.75;;;0.80;;
80425;SDS011;69766;51.476;5.704;2023-08-20T14:11:22;3.22;;;0.73;;
80425;SDS011;69766;51.476;5.704;2023-08-20T14:13:48;4.47;;;0.80;;
80425;SDS011;69766;51.476;5.704;2023-08-20T14:16:14;3.80;;;0.73;;
80425;SDS011;69766;51.476;5.704;2023-08-20T14:18:39;1.77;;;0.40;;
80425;SDS011;69766;51.476;5.704;2023-08-20T14:21:05;3.75;;;0.90;;
80425;SDS011;69766;51.476;5.704;2023-08-20T14:23:31;3.90;;;0.90;;
80425;SDS011;69766;51.476;5.704;2023-08-20T14:25:57;2.63;;;0.70;;
80425;SDS011;69766;51.476;5.704;2023-08-20T14:28:23;3.35;;;0.77;;
80425;SDS011;69766;51.476;5.704;2023-08-20T14:30:49;2.22;;;0.63;;
80425;SDS011;69766;51.476;5.704;2023-08-20T14:33:16;4.63;;;0.98;;
80425;SDS011;69766;51.476;5.704;2023-08-20T14:35:42;3.72;;;0.75;;
80425;SDS011;69766;51.476;5.704;2023-08-20T14:38:08;3.35;;;0.63;;
80425;SDS011;69766;51.476;5.704;2023-08-20T14:40:37;2.10;;;0.50;;
80425;SDS011;69766;51.476;5.704;2023-08-20T14:43:09;3.20;;;0.60;;
80425;SDS011;69766;51.476;5.704;2023-08-20T14:45:37;3.30;;;0.60;;
80425;SDS011;69766;51.476;5.704;2023-08-20T14:48:03;2.85;;;0.85;;
80425;SDS011;69766;51.476;5.704;2023-08-20T14:50:29;4.90;;;1.00;;
80425;SDS011;69766;51.476;5.704;2023-08-20T14:52:56;3.53;;;0.80;;
80425;SDS011;69766;51.476;5.704;2023-08-20T14:55:22;4.43;;;0.70;;
80425;SDS011;69766;51.476;5.704;2023-08-20T14:57:47;3.97;;;0.60;;